Terminal Aerodrome Forecast
Issued by NWS

Home | Current Version | Previous Version | Text Only | Print | Product List | Glossary On
Versions: 1 2 3 4 5 6 7 8 9 10 11 12 13 14 15 16 17 18 19 20
000
FTUS46 KOTX 272320
TAFSFF
TAF
KSFF 272320Z 2800/2824 23010G15KT P6SM -SHRA BKN040 BKN060
     FM280300 VRB03KT P6SM SCT050 BKN250
     FM281200 00000KT P6SM BKN012 BKN250
     FM281600 VRB03KT P6SM SCT015 OVC200
     FM282200 21006G12KT P6SM -RA BKN040 OVC120=

USA.gov is the U.S. government's official web portal to all federal, state and local government web resources and services.